createdAt,value
2017-09-11T00:01:56.989Z,15.59
2017-09-11T00:04:28.378Z,15.59
2017-09-11T00:06:59.711Z,15.60
2017-09-11T00:09:31.223Z,15.58
2017-09-11T00:12:05.088Z,15.59
2017-09-11T00:14:36.853Z,15.58
2017-09-11T00:17:08.351Z,15.53
2017-09-11T00:22:49.230Z,15.50
2017-09-11T00:25:20.928Z,15.52
2017-09-11T00:30:56.874Z,15.45
2017-09-11T00:33:28.707Z,15.45
2017-09-11T00:36:00.170Z,15.40
2017-09-11T00:44:22.795Z,15.34
2017-09-11T00:46:54.269Z,15.30
2017-09-11T00:49:25.992Z,15.28
2017-09-11T00:51:57.992Z,15.27
2017-09-11T00:54:31.401Z,15.26
2017-09-11T00:57:04.375Z,15.24
2017-09-11T00:59:37.580Z,15.22
2017-09-11T01:02:26.460Z,15.16
2017-09-11T01:04:57.979Z,15.12
2017-09-11T01:07:41.131Z,15.08
2017-09-11T01:10:12.898Z,15.03
2017-09-11T01:12:44.626Z,15.00
2017-09-11T01:15:39.461Z,14.99
2017-09-11T01:18:12.175Z,14.98
2017-09-11T01:20:43.886Z,14.95
2017-09-11T01:23:26.828Z,14.89
2017-09-11T01:25:58.284Z,14.86
2017-09-11T01:28:29.657Z,14.84
2017-09-11T01:31:01.701Z,14.83
2017-09-11T01:33:33.491Z,14.83
2017-09-11T01:36:06.208Z,14.81
2017-09-11T01:38:37.993Z,14.89
2017-09-11T01:41:09.161Z,14.89
2017-09-11T01:46:54.099Z,14.90
2017-09-11T01:49:25.427Z,14.88
2017-09-11T01:51:56.738Z,14.88
2017-09-11T01:57:24.045Z,14.83
2017-09-11T01:59:55.461Z,14.82
2017-09-11T02:02:27.458Z,14.83
2017-09-11T02:04:58.820Z,14.83
2017-09-11T02:07:30.756Z,14.81
2017-09-11T02:10:24.353Z,14.80
2017-09-11T02:12:55.760Z,14.78
2017-09-11T02:15:27.088Z,14.77
2017-09-11T02:20:53.967Z,14.68
2017-09-11T02:23:40.914Z,14.67
2017-09-11T02:26:12.835Z,14.66
2017-09-11T02:28:43.972Z,14.67
2017-09-11T02:31:15.498Z,14.65
2017-09-11T02:33:47.494Z,14.62
2017-09-11T02:36:19.018Z,14.61
2017-09-11T02:38:50.700Z,14.60
2017-09-11T02:41:22.048Z,14.61
2017-09-11T02:43:53.796Z,14.60
2017-09-11T02:46:25.384Z,14.64
2017-09-11T02:48:56.717Z,14.63
2017-09-11T02:57:17.898Z,14.64
2017-09-11T02:59:57.534Z,14.63
2017-09-11T03:02:29.151Z,14.58
2017-09-11T03:07:55.807Z,14.58
2017-09-11T03:10:27.104Z,14.62
2017-09-11T03:12:58.407Z,14.65
2017-09-11T03:18:27.453Z,14.73
2017-09-11T03:20:59.136Z,14.77
2017-09-11T03:23:30.521Z,14.72
2017-09-11T03:26:15.385Z,14.74
2017-09-11T03:28:46.773Z,14.73
2017-09-11T03:31:40.635Z,14.72
2017-09-11T03:34:16.998Z,14.75
2017-09-11T03:36:48.324Z,14.74
2017-09-11T03:39:19.698Z,14.76
2017-09-11T03:42:18.390Z,14.75
2017-09-11T03:44:49.815Z,14.77
2017-09-11T03:47:40.595Z,14.84
2017-09-11T03:50:12.552Z,14.85
2017-09-11T03:52:43.922Z,14.83
2017-09-11T03:55:48.284Z,14.83
2017-09-11T03:58:23.306Z,14.76
2017-09-11T04:00:57.740Z,14.79
2017-09-11T04:03:29.366Z,14.84
2017-09-11T04:06:00.901Z,14.79
2017-09-11T04:08:33.728Z,14.86
2017-09-11T04:11:05.014Z,14.85
2017-09-11T04:13:36.388Z,14.85
2017-09-11T04:16:13.792Z,14.88
2017-09-11T04:21:45.732Z,14.84
2017-09-11T04:24:19.834Z,14.88
2017-09-11T04:26:51.319Z,14.89
2017-09-11T04:29:23.740Z,14.85
2017-09-11T04:31:55.256Z,14.86
2017-09-11T04:34:37.681Z,14.91
2017-09-11T04:37:11.605Z,14.90
2017-09-11T04:39:44.334Z,14.88
2017-09-11T04:42:18.232Z,14.88
2017-09-11T04:44:49.417Z,14.87
2017-09-11T04:50:20.221Z,14.86
2017-09-11T04:52:51.941Z,14.91
2017-09-11T04:55:25.717Z,14.91
2017-09-11T04:57:57.113Z,14.91
2017-09-11T05:00:28.352Z,14.94
2017-09-11T05:03:00.014Z,14.97
2017-09-11T05:05:31.249Z,15.03
2017-09-11T05:08:03.261Z,14.99
2017-09-11T05:10:34.663Z,15.00
2017-09-11T05:13:07.905Z,14.96
2017-09-11T05:15:39.670Z,14.94
2017-09-11T05:18:11.291Z,14.98
2017-09-11T05:20:42.796Z,15.04
2017-09-11T05:23:14.455Z,15.07
2017-09-11T05:26:09.304Z,15.10
2017-09-11T05:28:41.739Z,15.03
2017-09-11T05:31:13.177Z,15.08
2017-09-11T05:36:40.806Z,15.09
2017-09-11T05:39:12.766Z,15.10
2017-09-11T05:41:44.599Z,15.05
2017-09-11T05:44:16.025Z,15.02
2017-09-11T05:46:48.925Z,14.98
2017-09-11T05:49:39.539Z,15.04
2017-09-11T05:52:12.249Z,15.05
2017-09-11T05:54:44.122Z,14.93
2017-09-11T05:57:26.793Z,14.92
2017-09-11T05:59:58.127Z,14.99
2017-09-11T06:02:29.465Z,14.91
2017-09-11T06:05:12.504Z,14.89
2017-09-11T06:07:43.998Z,14.91
2017-09-11T06:10:15.320Z,14.93
2017-09-11T06:12:46.842Z,15.00
2017-09-11T06:15:18.366Z,15.05
2017-09-11T06:17:57.086Z,15.15
2017-09-11T06:23:06.069Z,15.25
2017-09-11T06:25:37.672Z,15.31
2017-09-11T06:28:09.021Z,15.49
2017-09-11T06:30:57.982Z,15.52
2017-09-11T06:33:30.798Z,15.59
2017-09-11T06:36:03.534Z,15.62
2017-09-11T06:38:34.992Z,15.72
2017-09-11T06:41:06.253Z,15.78
2017-09-11T06:43:55.660Z,15.83
2017-09-11T06:46:26.986Z,15.73
2017-09-11T06:48:58.253Z,15.78
2017-09-11T06:51:29.858Z,15.80
2017-09-11T06:54:01.728Z,15.80
2017-09-11T06:56:55.294Z,15.99
2017-09-11T06:59:26.785Z,16.00
2017-09-11T07:01:59.662Z,16.04
2017-09-11T07:04:34.711Z,15.87
2017-09-11T07:07:09.863Z,15.76
2017-09-11T07:09:46.451Z,15.82
2017-09-11T07:12:26.741Z,15.85
2017-09-11T07:14:58.352Z,16.02
2017-09-11T07:17:30.137Z,16.00
2017-09-11T07:20:08.996Z,15.90
2017-09-11T07:22:42.027Z,15.88
2017-09-11T07:25:16.911Z,15.98
2017-09-11T07:27:48.571Z,16.13
2017-09-11T07:30:19.872Z,16.18
2017-09-11T07:32:51.027Z,16.18
2017-09-11T07:35:22.718Z,16.19
2017-09-11T07:37:53.927Z,16.10
2017-09-11T07:40:27.853Z,16.11
2017-09-11T07:43:02.161Z,15.97
2017-09-11T07:45:35.673Z,15.94
2017-09-11T07:48:10.330Z,15.92
2017-09-11T07:50:44.198Z,15.97
2017-09-11T07:53:16.682Z,16.10
2017-09-11T07:55:54.789Z,16.10
2017-09-11T07:58:35.914Z,16.28
2017-09-11T08:01:08.177Z,16.39
2017-09-11T08:03:44.693Z,16.54
2017-09-11T08:06:19.075Z,16.65
2017-09-11T08:08:51.951Z,16.72
2017-09-11T08:11:23.404Z,16.79
2017-09-11T08:13:54.617Z,16.82
2017-09-11T08:16:27.330Z,16.86
2017-09-11T08:21:53.731Z,17.05
2017-09-11T08:24:26.096Z,17.19
2017-09-11T08:27:00.820Z,17.34
2017-09-11T08:29:32.709Z,17.43
2017-09-11T08:37:48.237Z,17.83
2017-09-11T08:40:21.170Z,17.98
2017-09-11T08:42:54.114Z,17.97
2017-09-11T08:45:31.726Z,18.30
2017-09-11T08:48:07.240Z,18.67
2017-09-11T08:50:43.203Z,19.15
2017-09-11T08:53:16.097Z,19.11
2017-09-11T08:56:04.316Z,18.66
2017-09-11T08:58:35.978Z,18.32
2017-09-11T09:01:12.481Z,18.08
2017-09-11T09:03:48.810Z,18.40
2017-09-11T09:06:21.866Z,18.95
2017-09-11T09:08:53.706Z,19.22
2017-09-11T09:11:25.924Z,19.58
2017-09-11T09:14:16.199Z,19.03
2017-09-11T09:16:48.759Z,19.02
2017-09-11T09:19:19.918Z,19.20
2017-09-11T09:21:52.246Z,19.04
2017-09-11T09:24:26.485Z,18.77
2017-09-11T09:27:00.288Z,18.59
2017-09-11T09:29:33.200Z,18.46
2017-09-11T09:32:11.215Z,17.89
2017-09-11T09:34:44.990Z,17.83
2017-09-11T09:37:16.260Z,17.78
2017-09-11T09:42:46.460Z,18.41
2017-09-11T09:45:18.359Z,18.40
2017-09-11T09:47:49.704Z,18.77
2017-09-11T09:50:30.530Z,18.63
2017-09-11T09:53:12.127Z,18.84
2017-09-11T09:58:45.016Z,19.32
2017-09-11T10:05:00.430Z,19.46
2017-09-11T10:16:36.724Z,20.22
2017-09-11T10:19:10.059Z,20.24
2017-09-11T10:21:44.441Z,20.37
2017-09-11T10:25:38.508Z,20.71
2017-09-11T10:28:10.145Z,20.49
2017-09-11T10:30:41.663Z,20.44
2017-09-11T10:33:12.780Z,20.95
2017-09-11T10:35:44.342Z,21.07
2017-09-11T10:38:16.329Z,20.97
2017-09-11T10:40:50.179Z,21.43
2017-09-11T10:43:21.709Z,21.90
2017-09-11T10:45:59.983Z,22.14
2017-09-11T10:48:45.377Z,21.67
2017-09-11T10:51:20.958Z,22.20
2017-09-11T10:54:14.338Z,22.89
2017-09-11T10:56:46.935Z,22.03
2017-09-11T10:59:19.733Z,21.93
2017-09-11T11:01:55.471Z,21.96
2017-09-11T11:04:31.534Z,21.78
2017-09-11T11:07:11.704Z,21.40
2017-09-11T11:09:46.191Z,21.24
2017-09-11T11:12:21.177Z,21.07
2017-09-11T11:14:52.985Z,21.07
2017-09-11T11:17:26.045Z,20.92
2017-09-11T11:19:58.285Z,20.53
2017-09-11T11:22:29.465Z,20.54
2017-09-11T11:25:01.188Z,20.54
2017-09-11T11:27:32.494Z,20.30
2017-09-11T11:30:04.741Z,20.52
2017-09-11T11:32:38.119Z,20.61
2017-09-11T11:35:11.115Z,20.75
2017-09-11T11:37:42.770Z,20.85
2017-09-11T11:40:14.156Z,20.51
2017-09-11T11:42:46.294Z,20.59
2017-09-11T11:45:19.396Z,20.62
2017-09-11T11:47:50.658Z,20.44
2017-09-11T11:50:31.828Z,20.59
2017-09-11T11:53:05.640Z,20.24
2017-09-11T11:58:29.045Z,20.53
2017-09-11T12:02:36.807Z,21.06
2017-09-11T12:05:10.323Z,21.99
2017-09-11T12:10:22.578Z,22.47
2017-09-11T12:12:54.249Z,22.80
2017-09-11T12:15:28.299Z,23.73
2017-09-11T12:18:01.915Z,22.38
2017-09-11T12:20:38.996Z,21.89
2017-09-11T12:23:12.698Z,21.03
2017-09-11T12:25:47.418Z,21.30
2017-09-11T12:28:20.742Z,22.24
2017-09-11T12:30:57.096Z,22.66
2017-09-11T12:33:39.770Z,25.34
2017-09-11T12:36:14.057Z,28.15
2017-09-11T12:39:47.950Z,30.85
2017-09-11T12:42:24.128Z,31.10
2017-09-11T12:44:59.781Z,35.09
2017-09-11T12:47:34.376Z,33.77
2017-09-11T12:50:10.845Z,31.11
2017-09-11T12:52:43.542Z,29.57
2017-09-11T12:55:17.188Z,29.88
2017-09-11T12:57:53.129Z,34.46
2017-09-11T13:00:27.779Z,32.72
2017-09-11T13:03:02.643Z,28.64
2017-09-11T13:05:38.822Z,25.63
2017-09-11T13:08:13.433Z,23.90
2017-09-11T13:10:46.061Z,22.85
2017-09-11T13:13:37.493Z,22.24
2017-09-11T13:16:15.721Z,21.85
2017-09-11T13:18:49.195Z,21.42
2017-09-11T13:24:24.091Z,20.47
2017-09-11T13:26:59.025Z,19.64
2017-09-11T13:29:31.744Z,19.26
2017-09-11T13:34:58.451Z,17.67
2017-09-11T13:37:29.592Z,17.74
2017-09-11T13:40:04.160Z,18.00
2017-09-11T13:42:40.902Z,18.24
2017-09-11T13:45:16.527Z,18.53
2017-09-11T13:47:52.075Z,18.65
2017-09-11T13:53:22.115Z,20.81
2017-09-11T13:55:53.429Z,21.79
2017-09-11T13:58:32.061Z,24.42
2017-09-11T14:01:03.588Z,24.49
2017-09-11T14:03:47.245Z,25.21
2017-09-11T14:06:23.710Z,30.45
2017-09-11T14:08:55.442Z,34.07
2017-09-11T14:11:26.669Z,36.78
2017-09-11T14:13:58.082Z,32.51
2017-09-11T14:16:29.520Z,28.87
2017-09-11T14:19:01.937Z,26.40
2017-09-11T14:21:33.339Z,24.93
2017-09-11T14:24:05.604Z,24.22
2017-09-11T14:26:41.899Z,23.20
2017-09-11T14:32:08.458Z,22.49
2017-09-11T14:34:42.663Z,22.78
2017-09-11T14:37:30.017Z,24.18
2017-09-11T14:40:11.287Z,23.92
2017-09-11T14:42:45.344Z,23.58
2017-09-11T14:45:28.440Z,23.62
2017-09-11T14:48:04.923Z,24.72
2017-09-11T14:50:40.124Z,30.94
2017-09-11T14:53:11.766Z,35.09
2017-09-11T14:56:07.065Z,38.28
2017-09-11T15:01:51.253Z,38.72
2017-09-11T15:04:25.186Z,34.63
2017-09-11T15:06:59.915Z,30.29
2017-09-11T15:09:31.892Z,28.03
2017-09-11T15:12:17.289Z,26.46
2017-09-11T15:14:49.067Z,26.13
2017-09-11T15:17:27.070Z,27.39
2017-09-11T15:20:00.501Z,25.64
2017-09-11T15:22:34.229Z,23.96
2017-09-11T15:25:06.902Z,24.24
2017-09-11T15:27:40.529Z,23.72
2017-09-11T15:30:24.029Z,24.41
2017-09-11T15:32:55.991Z,25.58
2017-09-11T15:35:28.649Z,28.07
2017-09-11T15:38:01.638Z,29.34
2017-09-11T15:40:33.390Z,27.87
2017-09-11T15:43:06.378Z,25.76
2017-09-11T15:45:41.421Z,24.92
2017-09-11T15:48:13.580Z,23.80
2017-09-11T15:50:49.255Z,25.76
2017-09-11T15:53:21.551Z,29.25
2017-09-11T15:56:45.908Z,33.27
2017-09-11T15:59:18.316Z,34.93
2017-09-11T16:01:49.637Z,35.78
2017-09-11T16:04:21.040Z,34.90
2017-09-11T16:06:52.585Z,36.00
2017-09-11T16:09:23.845Z,35.31
2017-09-11T16:11:57.436Z,32.38
2017-09-11T16:14:31.417Z,31.12
2017-09-11T16:17:16.000Z,31.20
2017-09-11T16:19:48.942Z,31.33
2017-09-11T16:22:29.782Z,30.61
2017-09-11T16:25:01.385Z,30.56
2017-09-11T16:27:32.720Z,30.27
2017-09-11T16:33:04.324Z,29.21
2017-09-11T16:35:38.388Z,29.38
2017-09-11T16:38:13.801Z,27.22
2017-09-11T16:40:46.443Z,25.67
2017-09-11T16:43:17.961Z,24.39
2017-09-11T16:45:49.315Z,23.54
2017-09-11T16:48:21.470Z,22.81
2017-09-11T16:50:53.821Z,22.16
2017-09-11T16:53:31.084Z,21.40
2017-09-11T16:56:42.057Z,21.32
2017-09-11T16:59:14.714Z,21.05
2017-09-11T17:01:50.916Z,20.70
2017-09-11T17:07:14.767Z,19.92
2017-09-11T17:09:46.761Z,19.68
2017-09-11T17:12:20.962Z,19.46
2017-09-11T17:14:52.585Z,19.25
2017-09-11T17:17:24.812Z,18.92
2017-09-11T17:19:59.689Z,18.82
2017-09-11T17:22:31.938Z,18.62
2017-09-11T17:25:03.826Z,18.46
2017-09-11T17:27:34.940Z,18.35
2017-09-11T17:30:14.401Z,18.25
2017-09-11T17:32:49.036Z,18.06
2017-09-11T17:35:23.786Z,17.90
2017-09-11T17:37:55.501Z,17.81
2017-09-11T17:43:45.806Z,17.61
2017-09-11T17:46:33.670Z,17.49
2017-09-11T17:49:18.587Z,17.54
2017-09-11T17:51:54.790Z,17.38
2017-09-11T17:54:36.190Z,17.23
2017-09-11T17:57:08.176Z,17.14
2017-09-11T17:59:42.511Z,17.09
2017-09-11T18:02:16.836Z,16.99
2017-09-11T18:04:54.863Z,16.96
2017-09-11T18:07:39.236Z,16.92
2017-09-11T18:10:22.674Z,16.90
2017-09-11T18:13:11.513Z,16.85
2017-09-11T18:16:20.214Z,16.84
2017-09-11T18:18:55.956Z,16.81
2017-09-11T18:21:28.273Z,16.76
2017-09-11T18:24:04.164Z,16.73
2017-09-11T18:26:36.909Z,16.79
2017-09-11T18:29:12.852Z,16.83
2017-09-11T18:38:00.546Z,16.83
2017-09-11T18:40:31.889Z,16.81
2017-09-11T18:43:07.469Z,16.85
2017-09-11T18:47:01.525Z,16.88
2017-09-11T18:49:36.537Z,16.79
2017-09-11T18:52:08.525Z,16.73
2017-09-11T18:54:45.034Z,16.65
2017-09-11T18:57:18.817Z,16.60
2017-09-11T19:05:43.328Z,16.44
2017-09-11T19:08:14.777Z,16.37
2017-09-11T19:10:47.195Z,16.35
2017-09-11T19:13:21.939Z,16.27
2017-09-11T19:15:56.669Z,16.17
2017-09-11T19:18:27.899Z,16.12
2017-09-11T19:21:00.631Z,16.08
2017-09-11T19:23:33.237Z,16.03
2017-09-11T19:26:04.899Z,16.05
2017-09-11T19:28:39.102Z,16.04
2017-09-11T19:31:11.441Z,16.02
2017-09-11T19:33:43.372Z,15.99
2017-09-11T19:36:16.306Z,15.99
2017-09-11T19:38:49.433Z,15.96
2017-09-11T19:41:22.654Z,15.96
2017-09-11T19:43:57.169Z,15.92
2017-09-11T19:47:32.657Z,15.88
2017-09-11T19:50:04.989Z,15.81
2017-09-11T19:52:36.322Z,15.75
2017-09-11T19:55:13.745Z,15.71
2017-09-11T19:57:48.321Z,15.67
2017-09-11T20:00:27.564Z,15.65
2017-09-11T20:03:04.104Z,15.60
2017-09-11T20:05:38.653Z,15.57
2017-09-11T20:08:20.477Z,15.54
2017-09-11T20:10:56.634Z,15.56
2017-09-11T20:13:29.069Z,15.51
2017-09-11T20:16:03.141Z,15.44
2017-09-11T20:18:36.517Z,15.40
2017-09-11T20:21:12.444Z,15.34
2017-09-11T20:23:48.590Z,15.34
2017-09-11T20:26:33.006Z,15.31
2017-09-11T20:31:56.945Z,15.31
2017-09-11T20:34:40.189Z,15.31
2017-09-11T20:37:11.350Z,15.33
2017-09-11T20:39:46.963Z,15.34
2017-09-11T20:42:18.125Z,15.32
2017-09-11T20:44:49.511Z,15.36
2017-09-11T20:47:20.718Z,15.38
2017-09-11T20:49:52.730Z,15.37
2017-09-11T20:52:27.637Z,15.35
2017-09-11T20:55:03.557Z,15.36
2017-09-11T20:57:36.497Z,15.38
2017-09-11T21:00:12.112Z,15.39
2017-09-11T21:02:44.250Z,15.37
2017-09-11T21:05:16.073Z,15.41
2017-09-11T21:07:47.276Z,15.43
2017-09-11T21:10:18.439Z,15.42
2017-09-11T21:12:52.572Z,15.44
2017-09-11T21:15:25.784Z,15.39
2017-09-11T21:18:00.070Z,15.35
2017-09-11T21:20:33.997Z,15.34
2017-09-11T21:23:19.509Z,15.32
2017-09-11T21:25:51.011Z,15.28
2017-09-11T21:28:23.794Z,15.23
2017-09-11T21:30:56.455Z,15.14
2017-09-11T21:33:29.152Z,15.11
2017-09-11T21:36:04.831Z,15.02
2017-09-11T21:38:38.815Z,14.96
2017-09-11T21:41:10.817Z,14.94
2017-09-11T21:43:43.768Z,14.96
2017-09-11T21:46:19.412Z,14.94
2017-09-11T21:48:52.286Z,14.92
2017-09-11T21:51:25.353Z,14.91
2017-09-11T21:53:57.300Z,14.92
2017-09-11T21:56:31.108Z,14.95
2017-09-11T21:59:03.599Z,14.94
2017-09-11T22:01:36.032Z,14.96
2017-09-11T22:04:10.805Z,14.96
2017-09-11T22:06:43.857Z,14.99
2017-09-11T22:09:16.027Z,14.97
2017-09-11T22:11:48.628Z,14.95
2017-09-11T22:14:21.243Z,14.98
2017-09-11T22:17:03.743Z,14.92
2017-09-11T22:19:38.824Z,14.90
2017-09-11T22:22:33.553Z,14.90
2017-09-11T22:25:07.709Z,14.90
2017-09-11T22:27:42.587Z,14.87
2017-09-11T22:30:16.084Z,14.90
2017-09-11T22:32:47.659Z,14.88
2017-09-11T22:35:19.730Z,14.86
2017-09-11T22:37:51.509Z,14.91
2017-09-11T22:40:23.739Z,14.93
2017-09-11T22:42:55.554Z,14.96
2017-09-11T22:45:26.720Z,14.99
2017-09-11T22:47:59.797Z,15.01
2017-09-11T22:50:32.465Z,15.07
2017-09-11T22:53:05.347Z,15.09
2017-09-11T22:55:37.320Z,15.07
2017-09-11T22:58:09.697Z,15.12
2017-09-11T23:00:42.661Z,15.13
2017-09-11T23:03:13.809Z,15.17
2017-09-11T23:05:45.904Z,15.18
2017-09-11T23:08:22.411Z,15.17
2017-09-11T23:10:54.396Z,15.19
2017-09-11T23:13:28.171Z,15.19
2017-09-11T23:16:00.259Z,15.18
2017-09-11T23:18:31.358Z,15.19
2017-09-11T23:21:03.645Z,15.20
2017-09-11T23:23:36.533Z,15.19
2017-09-11T23:26:08.786Z,15.24
2017-09-11T23:31:35.143Z,15.30
2017-09-11T23:34:10.952Z,15.32
2017-09-11T23:36:43.075Z,15.32
2017-09-11T23:39:15.639Z,15.34
2017-09-11T23:41:47.616Z,15.34
2017-09-11T23:44:19.695Z,15.31
2017-09-11T23:46:51.729Z,15.29
2017-09-11T23:49:23.535Z,15.24
2017-09-11T23:51:55.647Z,15.20
2017-09-11T23:54:26.831Z,15.18
2017-09-11T23:56:57.939Z,15.13
2017-09-11T23:59:30.087Z,15.12
